Archival Weather

Kayes/Dag-Dag

Kayes/Dag-Dag, Mali (GAKD)

Report from: Thursday, September 21, 2023 3:00 AM UTC
Current time: Wednesday, May 29, 2024 11:27 PM UTC

Current weather – Weather history – Daily summaries
Weather forecast

Present weatherThunderstorm
Temperature25.0°C (77.0°F)
Dew point22.0°C (71.6°F)
Winds 2 kts (1 m/s, 2.3 mph) Northwest (320°)
Visibility6.2 mi. (10 km)
Clouds Scattered clouds 2,000 ft. (610 m)
Few clouds with cumulonimbus 3,000 ft. (914 m)
Altimeter29.85 in.Hg (1011 mB)
Relative humidity83 %
Density altitude1,590 ft. (485 m)
Flight conditions Visual Meteorological Conditions
Raw dataGAKD 210300Z 32002KT 9999 TS SCT020 FEW030CB 25/22 Q1011
An error has occurred. This application may no longer respond until reloaded. Reload 🗙